Time;durP1;ratioP1;P1;durP2;ratioP2;P2;SDS_P1;SDS_P2;PMS_P1;PMS_P2;Temp;Humidity;BMP_temperature;BMP_pressure;BME280_temperature;BME280_humidity;BME280_pressure;Samples;Min_cycle;Max_cycle;Signal;HPM_P1;HPM_P2
2021/07/26 00:03:03;;;;;;;2.20;2.20;;;;;;;20.78;66.30;101973.25;5979863;29;20243;-76
2021/07/26 00:06:10;;;;;;;2.05;2.05;;;;;;;20.73;66.57;101973.19;5981285;29;20242;-76
2021/07/26 00:09:14;;;;;;;2.00;1.98;;;;;;;20.75;66.52;101979.31;5981156;29;20248;-75
2021/07/26 00:12:20;;;;;;;2.10;2.00;;;;;;;20.69;66.74;101983.16;5981117;29;20193;-75
2021/07/26 00:15:25;;;;;;;2.00;1.75;;;;;;;20.68;67.33;101984.22;5981216;29;20260;-75
2021/07/26 00:18:29;;;;;;;2.20;2.20;;;;;;;20.67;67.19;101982.56;5980116;29;20429;-76
2021/07/26 00:21:34;;;;;;;2.00;2.00;;;;;;;20.60;67.48;101992.97;5981091;29;20200;-76
2021/07/26 00:24:38;;;;;;;2.17;2.17;;;;;;;20.64;66.55;101988.63;5980977;29;20250;-75
2021/07/26 00:27:42;;;;;;;2.20;2.10;;;;;;;20.61;66.59;101997.44;5983796;29;20246;-75
2021/07/26 00:30:47;;;;;;;1.90;1.90;;;;;;;20.57;67.15;101993.50;5983593;29;20193;-75
2021/07/26 00:34:18;;;;;;;1.80;1.80;;;;;;;20.43;68.47;101993.03;5981057;29;20193;-76
2021/07/26 00:37:26;;;;;;;2.17;2.00;;;;;;;20.44;68.43;101993.88;5980847;29;20193;-75
2021/07/26 00:40:30;;;;;;;1.85;1.85;;;;;;;20.39;68.41;101997.38;5980130;29;20283;-76
2021/07/26 00:43:34;;;;;;;2.47;1.98;;;;;;;20.36;68.87;101997.88;5980491;29;20484;-75
2021/07/26 00:46:38;;;;;;;2.13;1.90;;;;;;;20.28;69.35;101994.72;5981231;29;20200;-75
2021/07/26 00:49:43;;;;;;;2.00;2.00;;;;;;;20.37;69.28;101993.19;5980720;29;20232;-76
2021/07/26 00:52:48;;;;;;;1.80;1.80;;;;;;;20.24;70.47;101999.09;5980478;29;20203;-75
2021/07/26 00:55:52;;;;;;;2.20;2.20;;;;;;;20.36;69.77;101986.81;5979478;29;20480;-76
2021/07/26 00:58:57;;;;;;;3.08;2.00;;;;;;;20.37;70.82;101987.66;5980300;29;20264;-76
2021/07/26 01:02:02;;;;;;;1.80;1.80;;;;;;;20.24;71.49;101994.38;5991191;24;20482;-74
2021/07/26 01:05:25;;;;;;;2.00;2.00;;;;;;;20.29;71.22;101993.63;5979778;29;20200;-76
2021/07/26 01:08:31;;;;;;;2.40;2.40;;;;;;;20.27;72.20;101987.50;5979201;29;20524;-74
2021/07/26 01:11:35;;;;;;;2.45;2.22;;;;;;;20.31;71.56;101994.22;5980383;29;20224;-74
2021/07/26 01:14:40;;;;;;;2.20;2.10;;;;;;;20.29;71.53;102001.94;5979150;29;20422;-74
2021/07/26 01:18:24;;;;;;;2.20;2.20;;;;;;;20.25;72.01;102009.09;5979688;29;20200;-74
2021/07/26 01:21:31;;;;;;;2.10;2.10;;;;;;;20.25;71.46;101995.22;5979108;29;20193;-74
2021/07/26 01:24:35;;;;;;;2.70;2.60;;;;;;;20.15;71.54;102003.34;5979087;29;20193;-75
2021/07/26 01:27:41;;;;;;;2.08;2.08;;;;;;;20.15;71.78;102000.59;5979897;29;20193;-75
2021/07/26 01:30:47;;;;;;;2.05;2.05;;;;;;;20.16;71.58;101996.72;5978977;29;20227;-75
2021/07/26 01:33:52;;;;;;;3.90;2.40;;;;;;;20.18;71.42;101989.00;5979067;29;20468;-75
2021/07/26 01:36:58;;;;;;;4.43;2.05;;;;;;;20.10;72.05;101992.19;5978886;29;20383;-75
2021/07/26 01:40:02;;;;;;;2.38;2.25;;;;;;;20.10;71.99;101987.50;5980218;29;20261;-75
2021/07/26 01:43:10;;;;;;;2.70;2.50;;;;;;;20.10;71.93;101975.56;5979739;29;20235;-75
2021/07/26 01:46:27;;;;;;;2.50;2.40;;;;;;;20.06;72.72;101982.69;5979167;29;20193;-75
2021/07/26 01:49:44;;;;;;;3.53;2.45;;;;;;;20.06;72.35;101985.44;5978708;29;20514;-75
2021/07/26 01:52:49;;;;;;;2.20;2.10;;;;;;;20.07;72.22;101982.44;5979784;29;20193;-74
2021/07/26 01:55:53;;;;;;;3.50;2.50;;;;;;;20.06;72.18;101977.16;5979977;29;20266;-75
2021/07/26 01:58:58;;;;;;;2.40;2.40;;;;;;;20.12;71.90;101990.00;5978674;29;20492;-75
2021/07/26 02:02:02;;;;;;;2.90;2.65;;;;;;;20.00;72.78;101977.06;5979509;29;20237;-75
2021/07/26 02:05:07;;;;;;;2.95;2.72;;;;;;;20.04;72.57;101982.94;5979639;29;20193;-75
2021/07/26 02:08:13;;;;;;;2.20;2.20;;;;;;;19.98;73.28;101979.25;5978670;29;20441;-75
2021/07/26 02:11:21;;;;;;;2.88;2.78;;;;;;;19.97;73.00;101972.06;5979922;29;20417;-75
2021/07/26 02:14:25;;;;;;;2.60;2.50;;;;;;;19.92;73.31;101974.75;5982925;29;20200;-74
2021/07/26 02:17:30;;;;;;;2.60;2.50;;;;;;;19.92;73.60;101974.75;5982878;29;20423;-74
2021/07/26 02:20:34;;;;;;;2.85;2.70;;;;;;;19.82;74.21;101977.31;5982769;29;20201;-74
2021/07/26 02:23:39;;;;;;;6.50;2.60;;;;;;;19.82;74.55;101974.53;5982779;29;20201;-74
2021/07/26 02:26:44;;;;;;;2.67;2.47;;;;;;;19.85;73.92;101968.50;5981784;29;20209;-74
2021/07/26 02:29:48;;;;;;;3.28;2.40;;;;;;;19.77;74.66;101960.59;5982506;29;20224;-75
2021/07/26 02:32:52;;;;;;;4.32;2.38;;;;;;;19.76;74.30;101964.47;5982662;29;20266;-75
2021/07/26 02:35:56;;;;;;;2.63;2.47;;;;;;;19.83;74.29;101976.22;5983847;29;20224;-74
2021/07/26 02:39:02;;;;;;;2.50;2.30;;;;;;;19.82;74.60;101977.31;5983360;29;20197;-75
2021/07/26 02:42:06;;;;;;;2.40;2.38;;;;;;;19.76;74.83;101975.56;5983492;29;20193;-75
2021/07/26 02:45:11;;;;;;;5.68;3.05;;;;;;;19.83;74.75;101976.22;5983574;29;20197;-75
2021/07/26 02:48:16;;;;;;;2.70;2.47;;;;;;;19.70;75.83;101982.09;5983337;29;20199;-74
2021/07/26 02:51:20;;;;;;;4.55;2.60;;;;;;;19.72;75.64;101984.63;5983359;29;20228;-75
2021/07/26 02:54:26;;;;;;;4.70;2.38;;;;;;;19.70;75.81;101987.63;5982978;29;20256;-75
2021/07/26 02:57:30;;;;;;;4.00;2.53;;;;;;;19.71;75.73;101989.31;5981182;29;20368;-75
2021/07/26 03:00:34;;;;;;;3.40;2.47;;;;;;;19.75;75.43;102000.72;5981547;29;20216;-75
2021/07/26 03:03:39;;;;;;;3.53;2.60;;;;;;;19.77;75.64;102002.16;5982127;29;20255;-75
2021/07/26 03:06:43;;;;;;;6.85;2.75;;;;;;;19.80;75.61;101998.88;5983102;29;20272;-75
2021/07/26 03:09:49;;;;;;;2.80;2.70;;;;;;;19.80;75.88;101993.34;5981818;29;20411;-75
2021/07/26 03:12:53;;;;;;;5.30;2.80;;;;;;;19.77;75.78;101998.56;5981706;29;20561;-75
2021/07/26 03:15:57;;;;;;;5.20;2.42;;;;;;;19.74;76.08;101996.28;5982915;29;20234;-75
2021/07/26 03:19:01;;;;;;;3.58;2.83;;;;;;;19.76;76.11;102005.19;5982182;29;20247;-75
2021/07/26 03:22:48;;;;;;;3.63;2.60;;;;;;;19.72;77.67;102007.59;5981347;29;20306;-75
2021/07/26 03:25:53;;;;;;;2.95;2.80;;;;;;;19.74;76.66;102013.75;5982715;29;20225;-75
2021/07/26 03:28:57;;;;;;;2.67;2.58;;;;;;;19.79;76.67;102013.84;5981417;29;20224;-75
2021/07/26 03:32:01;;;;;;;6.03;2.70;;;;;;;19.77;76.86;102013.22;5982478;29;20217;-74
2021/07/26 03:35:06;;;;;;;2.28;2.28;;;;;;;19.75;77.30;102023.72;5981558;29;20282;-75
2021/07/26 03:38:11;;;;;;;2.97;2.88;;;;;;;19.79;77.06;102011.06;5981170;29;20381;-76
2021/07/26 03:41:20;;;;;;;3.50;2.63;;;;;;;19.77;77.64;102010.44;5982510;29;20214;-75
2021/07/26 03:44:24;;;;;;;2.85;2.65;;;;;;;19.78;78.08;102006.59;5981929;29;20193;-75
2021/07/26 03:47:28;;;;;;;2.83;2.70;;;;;;;19.79;78.25;102007.44;5981123;29;20504;-75
2021/07/26 03:50:32;;;;;;;2.95;2.75;;;;;;;19.86;77.65;102002.59;5980773;29;20220;-75
2021/07/26 03:53:36;;;;;;;6.00;3.58;;;;;;;19.65;79.99;101998.63;5982157;29;20193;-76
2021/07/26 03:56:42;;;;;;;3.00;2.80;;;;;;;19.79;78.80;102004.69;5980751;29;20491;-75
2021/07/26 03:59:46;;;;;;;5.60;2.85;;;;;;;19.79;79.20;102008.28;5981899;29;20201;-75
2021/07/26 04:02:56;;;;;;;3.03;2.92;;;;;;;19.82;79.54;102002.22;5980749;29;20549;-75
2021/07/26 04:06:05;;;;;;;2.80;2.70;;;;;;;19.88;79.61;102006.78;5981924;29;20224;-75
2021/07/26 04:09:09;;;;;;;3.60;3.40;;;;;;;19.88;79.86;102001.25;5981112;29;20264;-75
2021/07/26 04:12:20;;;;;;;3.15;2.90;;;;;;;19.86;81.38;102003.44;5981781;29;20262;-75
2021/07/26 04:15:25;;;;;;;2.63;2.60;;;;;;;19.90;81.25;102004.59;5980702;29;20335;-75
2021/07/26 04:18:29;;;;;;;4.53;3.00;;;;;;;19.94;81.22;102003.03;5980374;29;20593;-75
2021/07/26 04:21:34;;;;;;;3.08;2.83;;;;;;;19.96;81.72;101998.06;5981622;29;20204;-75
2021/07/26 04:24:39;;;;;;;3.00;2.90;;;;;;;20.02;81.92;102006.47;5981549;29;20200;-75
2021/07/26 04:27:44;;;;;;;2.47;2.38;;;;;;;20.00;82.52;102004.75;5981171;29;20193;-75
2021/07/26 04:30:48;;;;;;;3.25;3.10;;;;;;;20.07;82.87;102006.53;5981001;29;20220;-75
2021/07/26 04:33:52;;;;;;;3.03;2.85;;;;;;;20.12;82.46;102001.06;5980541;29;20193;-75
2021/07/26 04:36:56;;;;;;;3.13;2.72;;;;;;;20.11;83.97;101999.41;5981226;29;20193;-75
2021/07/26 04:40:00;;;;;;;3.28;3.15;;;;;;;20.20;83.11;102008.97;5981146;29;20298;-75
2021/07/26 04:43:06;;;;;;;2.65;2.60;;;;;;;20.26;82.67;102002.47;5980817;29;20385;-75
2021/07/26 04:46:10;;;;;;;3.30;2.90;;;;;;;20.31;82.98;102005.31;5979742;29;20384;-74
2021/07/26 04:49:15;;;;;;;2.70;2.58;;;;;;;20.37;82.69;102009.81;5979669;29;20212;-74
2021/07/26 04:52:19;;;;;;;4.55;3.30;;;;;;;20.45;82.41;102001.06;5979530;29;20410;-75
2021/07/26 04:55:24;;;;;;;3.35;3.03;;;;;;;20.51;81.68;102005.63;5979556;29;20240;-75
2021/07/26 04:58:29;;;;;;;3.00;2.80;;;;;;;20.54;82.16;102010.66;5979050;29;20423;-75
2021/07/26 05:01:34;;;;;;;4.80;2.78;;;;;;;20.55;82.88;102001.22;5980603;29;20197;-75
2021/07/26 05:04:38;;;;;;;4.15;3.10;;;;;;;20.58;82.58;102000.72;5958114;30;20194;-75
2021/07/26 05:07:43;;;;;;;3.38;3.28;;;;;;;20.65;81.80;102001.38;5958052;29;20264;-75
2021/07/26 05:10:47;;;;;;;2.92;2.83;;;;;;;20.75;81.23;101990.41;5957757;30;20321;-75
2021/07/26 05:13:53;;;;;;;3.33;3.08;;;;;;;20.75;82.16;102000.69;5957856;30;20194;-75
2021/07/26 05:16:57;;;;;;;3.42;3.25;;;;;;;20.81;81.64;101997.72;5957779;30;20193;-74
2021/07/26 05:20:01;;;;;;;3.88;3.60;;;;;;;20.90;80.55;101987.84;5956169;29;20552;-75
2021/07/26 05:23:09;;;;;;;3.40;3.30;;;;;;;20.98;79.78;101990.16;5956703;30;20198;-75
2021/07/26 05:26:14;;;;;;;3.85;3.40;;;;;;;21.05;78.29;101982.50;5957714;30;20200;-75
2021/07/26 05:29:20;;;;;;;3.90;3.60;;;;;;;21.10;77.38;101977.06;5955451;30;20512;-75
2021/07/26 05:32:24;;;;;;;4.25;3.88;;;;;;;21.17;76.86;101977.69;5957968;30;20296;-75
2021/07/26 05:35:30;;;;;;;4.35;3.92;;;;;;;21.21;76.26;101973.28;5956599;30;20395;-75
2021/07/26 05:38:35;;;;;;;4.18;3.45;;;;;;;21.24;75.98;101973.88;5956939;30;20216;-75
2021/07/26 05:41:39;;;;;;;3.95;3.65;;;;;;;21.29;75.69;101965.59;5957850;30;20205;-75
2021/07/26 05:44:45;;;;;;;11.80;4.50;;;;;;;21.39;75.11;101968.50;5957036;29;20481;-74
2021/07/26 05:47:50;;;;;;;7.75;3.90;;;;;;;21.47;74.82;101973.56;5961233;30;20477;-74
2021/07/26 05:50:54;;;;;;;4.75;3.75;;;;;;;21.61;74.45;101972.03;5961887;30;20282;-75
2021/07/26 05:54:04;;;;;;;4.10;3.80;;;;;;;21.69;72.65;101975.19;5975043;29;20408;-75
2021/07/26 05:57:12;;;;;;;3.88;3.47;;;;;;;21.74;72.31;101971.59;5960220;29;20213;-75
2021/07/26 06:00:24;;;;;;;4.45;4.10;;;;;;;21.83;72.10;101975.56;5960290;29;20209;-75
2021/07/26 06:03:28;;;;;;;4.70;4.30;;;;;;;22.01;71.59;101964.06;5974188;29;20300;-76
2021/07/26 06:06:32;;;;;;;4.38;4.05;;;;;;;22.15;71.19;101973.66;5983178;29;20208;-75
2021/07/26 06:09:37;;;;;;;8.00;4.45;;;;;;;22.30;70.13;101975.69;5983236;29;20197;-75
2021/07/26 06:12:41;;;;;;;11.95;4.60;;;;;;;22.35;67.87;101973.78;5982983;29;20303;-75
2021/07/26 06:15:46;;;;;;;4.70;4.40;;;;;;;22.49;67.32;101973.31;5984240;29;20193;-76
2021/07/26 06:18:51;;;;;;;6.72;4.30;;;;;;;22.67;68.13;101975.69;5983438;29;20193;-75
2021/07/26 06:21:56;;;;;;;5.70;5.15;;;;;;;22.83;67.59;101969.09;5983799;29;20197;-76
2021/07/26 06:25:00;;;;;;;5.35;4.85;;;;;;;22.92;63.96;101967.47;5983862;29;20215;-75
2021/07/26 06:28:05;;;;;;;21.42;5.45;;;;;;;22.98;64.42;101971.94;5984513;29;20193;-75
2021/07/26 06:31:12;;;;;;;9.38;4.88;;;;;;;23.00;63.53;101978.06;5984411;29;20259;-75
2021/07/26 06:34:17;;;;;;;7.88;4.85;;;;;;;23.09;63.20;101979.19;5983281;29;20200;-75
2021/07/26 06:37:21;;;;;;;8.43;5.07;;;;;;;23.19;62.07;101979.22;5983580;29;20199;-75
2021/07/26 06:40:25;;;;;;;8.77;4.63;;;;;;;23.26;61.18;101976.22;5983291;29;20224;-76
2021/07/26 06:43:29;;;;;;;11.90;4.45;;;;;;;23.39;61.77;101971.00;5982382;29;20461;-75
2021/07/26 06:46:35;;;;;;;10.27;4.93;;;;;;;23.52;61.75;101967.66;5982622;29;20193;-75
2021/07/26 06:49:39;;;;;;;7.22;4.50;;;;;;;23.67;61.33;101972.44;5983517;29;20193;-75
2021/07/26 06:52:43;;;;;;;5.32;4.93;;;;;;;23.80;60.98;101968.25;5983040;29;20302;-75
2021/07/26 06:55:47;;;;;;;9.43;4.70;;;;;;;23.88;59.34;101976.06;5983317;29;20201;-76
2021/07/26 06:58:51;;;;;;;9.32;5.10;;;;;;;23.99;59.83;101977.72;5982189;29;20256;-76
2021/07/26 07:01:57;;;;;;;6.63;4.68;;;;;;;24.02;59.67;101977.16;5982908;29;20208;-75
2021/07/26 07:05:01;;;;;;;9.32;5.07;;;;;;;24.13;59.30;101973.31;5983074;29;20271;-75
2021/07/26 07:08:06;;;;;;;8.57;5.22;;;;;;;24.25;59.25;101976.63;5982872;29;20193;-76
2021/07/26 07:11:12;;;;;;;8.73;4.88;;;;;;;24.28;57.20;101970.50;5981374;29;20200;-76
2021/07/26 07:14:17;;;;;;;13.77;4.60;;;;;;;24.26;55.24;101972.72;5982400;29;20221;-76
2021/07/26 07:17:23;;;;;;;9.07;4.40;;;;;;;24.38;55.59;101976.03;5982821;29;20200;-76
2021/07/26 07:20:27;;;;;;;4.43;3.97;;;;;;;24.33;54.34;101980.78;5982244;29;20193;-76
2021/07/26 07:23:31;;;;;;;7.53;4.53;;;;;;;24.32;54.53;101971.59;5981815;29;20228;-76
2021/07/26 07:26:39;;;;;;;4.90;4.50;;;;;;;24.37;55.00;101985.53;5981954;29;20256;-75
2021/07/26 07:29:43;;;;;;;11.73;5.10;;;;;;;24.42;53.52;101996.66;5982420;29;20193;-75
2021/07/26 07:32:49;;;;;;;6.63;4.70;;;;;;;24.53;52.51;101995.53;5981719;29;20220;-76
2021/07/26 07:35:53;;;;;;;14.75;4.50;;;;;;;24.55;51.28;101993.28;5982080;29;20234;-76
2021/07/26 07:38:59;;;;;;;14.20;4.65;;;;;;;24.46;51.43;101994.16;5980775;29;20243;-75
2021/07/26 07:42:05;;;;;;;5.03;4.63;;;;;;;24.47;51.86;101991.13;5982253;29;20203;-75
2021/07/26 07:45:11;;;;;;;10.70;4.20;;;;;;;24.44;51.71;101991.66;5980973;29;20240;-75
2021/07/26 07:48:20;;;;;;;9.25;5.32;;;;;;;24.44;52.23;101991.66;5982130;29;20193;-76
2021/07/26 07:51:26;;;;;;;7.30;5.32;;;;;;;24.51;53.31;101996.94;5981124;29;20200;-76
2021/07/26 07:54:30;;;;;;;10.98;5.45;;;;;;;24.56;53.24;102000.56;5981930;29;20233;-76
2021/07/26 07:57:36;;;;;;;9.00;5.18;;;;;;;24.61;52.42;102002.50;5980606;29;20547;-76
2021/07/26 08:00:40;;;;;;;6.88;5.47;;;;;;;24.61;53.03;102014.50;5981421;29;20306;-76
2021/07/26 08:03:45;;;;;;;7.75;4.53;;;;;;;24.80;53.35;102010.03;5980564;29;20324;-76
2021/07/26 08:06:50;;;;;;;7.97;5.40;;;;;;;24.93;53.79;102007.75;5981007;29;20355;-76
2021/07/26 08:09:54;;;;;;;9.48;4.60;;;;;;;24.96;52.13;102004.41;5980850;29;20301;-76
2021/07/26 08:12:58;;;;;;;8.32;5.28;;;;;;;25.08;52.69;102010.47;5980217;29;20221;-75
2021/07/26 08:16:05;;;;;;;5.25;4.63;;;;;;;25.02;51.76;102008.81;5980228;29;20218;-76
2021/07/26 08:19:26;;;;;;;6.90;4.60;;;;;;;24.95;51.29;102013.88;5980095;29;20256;-75
2021/07/26 08:22:30;;;;;;;4.80;4.38;;;;;;;24.98;51.00;102007.72;5981374;29;20246;-76
2021/07/26 08:25:34;;;;;;;6.93;4.50;;;;;;;24.97;50.53;102011.63;5980220;29;20547;-76
2021/07/26 08:28:38;;;;;;;8.25;4.90;;;;;;;24.96;51.38;102018.34;5979817;29;20193;-76
2021/07/26 08:31:43;;;;;;;6.18;5.22;;;;;;;24.95;51.89;102016.66;5979779;29;20395;-76
2021/07/26 08:34:49;;;;;;;18.85;6.07;;;;;;;24.87;52.45;102002.19;5980874;29;20228;-75
2021/07/26 08:37:54;;;;;;;5.45;4.60;;;;;;;24.96;52.64;101996.03;5980737;29;20256;-76
2021/07/26 08:40:58;;;;;;;10.45;5.07;;;;;;;24.96;52.61;102004.41;5980413;29;20266;-75
2021/07/26 08:44:02;;;;;;;5.32;5.00;;;;;;;24.83;52.33;102005.84;5980657;29;20196;-76
2021/07/26 08:47:06;;;;;;;7.13;4.72;;;;;;;24.97;52.47;102001.31;5979974;29;20427;-76
2021/07/26 08:50:16;;;;;;;12.98;4.68;;;;;;;24.94;52.02;102004.66;5980847;29;20200;-75
2021/07/26 08:53:22;;;;;;;8.18;4.22;;;;;;;24.98;51.07;102005.78;5980454;29;20220;-76
2021/07/26 08:56:26;;;;;;;8.23;4.47;;;;;;;24.92;51.58;102003.28;5978657;29;20503;-75
2021/07/26 08:59:30;;;;;;;4.90;4.45;;;;;;;25.04;51.48;102006.59;5978505;29;20213;-75
2021/07/26 09:02:34;;;;;;;7.30;4.07;;;;;;;25.01;49.92;102002.44;5978979;29;20661;-76
2021/07/26 09:05:43;;;;;;;5.28;3.42;;;;;;;24.92;44.42;102011.66;5979223;29;20396;-76
2021/07/26 09:08:47;;;;;;;5.75;3.15;;;;;;;24.94;42.55;102012.19;5980304;29;20250;-76
2021/07/26 09:11:51;;;;;;;8.13;3.20;;;;;;;24.97;43.39;102011.63;5979216;29;20469;-75
2021/07/26 09:14:56;;;;;;;5.82;3.13;;;;;;;25.08;43.34;102007.69;5978154;29;20637;-75
2021/07/26 09:18:04;;;;;;;3.60;3.45;;;;;;;25.12;44.14;102000.41;5980441;29;20256;-75
2021/07/26 09:21:10;;;;;;;3.63;3.35;;;;;;;25.10;43.75;102006.28;5978855;29;20199;-76
2021/07/26 09:24:14;;;;;;;10.98;3.65;;;;;;;25.15;41.60;102008.22;5980244;29;20276;-76
2021/07/26 09:27:19;;;;;;;4.03;3.40;;;;;;;25.26;43.21;102004.25;5980249;29;20193;-76
2021/07/26 09:30:23;;;;;;;4.05;3.60;;;;;;;25.26;43.10;101995.88;5979965;29;20193;-77
2021/07/26 09:33:29;;;;;;;7.43;3.83;;;;;;;25.29;42.78;101998.09;5992882;29;20239;-76
2021/07/26 09:36:38;;;;;;;20.40;3.90;;;;;;;25.38;41.89;102001.94;5979743;29;20250;-76
2021/07/26 09:39:42;;;;;;;3.65;3.38;;;;;;;25.42;43.52;101997.47;5979997;29;20258;-76
2021/07/26 09:42:46;;;;;;;6.88;3.83;;;;;;;25.44;41.27;102003.59;5978759;29;20225;-75
2021/07/26 09:45:52;;;;;;;8.18;3.50;;;;;;;25.43;40.86;102010.28;5979914;29;20197;-76
2021/07/26 09:49:09;;;;;;;3.78;3.47;;;;;;;25.36;40.97;101995.81;5980207;29;20197;-74
2021/07/26 09:52:21;;;;;;;3.22;2.92;;;;;;;25.36;39.87;101987.44;5980364;29;20200;-74
2021/07/26 09:55:30;;;;;;;16.48;4.13;;;;;;;25.44;40.24;101989.63;5978795;29;20550;-76
2021/07/26 09:58:39;;;;;;;6.43;3.60;;;;;;;25.30;40.46;101977.41;5978724;29;20216;-74
2021/07/26 10:01:43;;;;;;;4.32;3.92;;;;;;;25.38;40.27;101982.38;5977733;29;20288;-74
2021/07/26 10:04:50;;;;;;;4.20;3.20;;;;;;;25.36;38.45;101990.22;5979552;29;20204;-74
2021/07/26 10:07:56;;;;;;;20.60;4.63;;;;;;;25.41;38.39;101985.44;5978656;29;20481;-75
2021/07/26 10:11:02;;;;;;;8.32;3.50;;;;;;;25.40;38.78;101994.09;5978466;29;20499;-74
2021/07/26 10:14:08;;;;;;;3.10;2.83;;;;;;;25.40;39.24;101985.72;5979652;29;20227;-74
2021/07/26 10:17:13;;;;;;;7.05;3.58;;;;;;;25.32;38.67;101980.78;5979596;29;20299;-75
2021/07/26 10:20:22;;;;;;;6.10;3.22;;;;;;;25.41;37.69;101977.06;5978369;29;20257;-75
2021/07/26 10:23:34;;;;;;;3.67;3.20;;;;;;;25.49;38.29;101981.25;5979678;29;20200;-74
2021/07/26 10:26:42;;;;;;;5.30;3.17;;;;;;;25.48;39.01;101973.97;5978390;29;20250;-76
2021/07/26 10:29:50;;;;;;;9.45;3.30;;;;;;;25.53;39.37;101976.72;5978701;29;20194;-74
2021/07/26 10:32:58;;;;;;;12.70;3.67;;;;;;;25.55;38.85;101991.28;5980584;29;20193;-75
2021/07/26 10:36:02;;;;;;;17.40;4.00;;;;;;;25.55;37.98;101974.50;5982278;29;20384;-75
2021/07/26 10:39:08;;;;;;;9.38;3.13;;;;;;;25.51;37.28;101973.41;5982281;29;20201;-75
2021/07/26 10:42:32;;;;;;;3.25;2.70;;;;;;;25.55;37.24;101971.72;5983483;29;20193;-75
2021/07/26 10:46:07;;;;;;;20.48;3.65;;;;;;;25.54;37.32;101964.44;5982299;29;20197;-75
2021/07/26 10:49:11;;;;;;;3.60;3.30;;;;;;;25.48;36.63;101969.22;5996370;29;20520;-75
2021/07/26 10:52:44;;;;;;;5.38;3.38;;;;;;;25.60;37.49;101971.69;5982240;29;20225;-75
2021/07/26 10:56:06;;;;;;;3.67;3.20;;;;;;;25.71;37.08;101967.66;5982032;29;20535;-76
2021/07/26 10:59:12;;;;;;;10.25;3.25;;;;;;;25.81;37.02;101962.00;5982983;29;20228;-75
2021/07/26 11:02:33;;;;;;;19.30;3.58;;;;;;;25.88;36.75;101956.91;5982559;29;20244;-75
2021/07/26 11:05:38;;;;;;;6.53;3.33;;;;;;;25.99;35.74;101947.28;5982986;29;20268;-75
2021/07/26 11:08:42;;;;;;;4.20;3.05;;;;;;;26.04;36.54;101955.63;5983011;29;20267;-75
2021/07/26 11:11:48;;;;;;;5.18;3.10;;;;;;;26.15;36.97;101944.38;5982736;29;20199;-75
2021/07/26 11:15:14;;;;;;;11.70;3.65;;;;;;;26.24;36.09;101943.47;5982915;29;20248;-75
2021/07/26 11:18:20;;;;;;;7.30;2.60;;;;;;;26.27;34.66;101953.25;5982876;29;20231;-75
2021/07/26 11:21:35;;;;;;;9.38;3.42;;;;;;;26.35;35.85;101956.22;5982731;29;20193;-75
2021/07/26 11:24:44;;;;;;;5.38;2.95;;;;;;;26.36;36.99;101941.09;5982756;29;20229;-75
2021/07/26 11:27:50;;;;;;;4.20;2.88;;;;;;;26.34;37.60;101948.97;5981823;29;20406;-76
2021/07/26 11:30:55;;;;;;;6.55;3.60;;;;;;;26.41;37.81;101943.00;5981301;29;20500;-75
2021/07/26 11:34:11;;;;;;;3.83;3.47;;;;;;;26.44;38.13;101939.63;5981156;29;20314;-75
2021/07/26 11:37:15;;;;;;;3.72;3.50;;;;;;;26.47;37.01;101941.84;5981307;29;20261;-75
2021/07/26 11:40:32;;;;;;;5.43;3.28;;;;;;;26.52;37.09;101934.22;5981972;29;20201;-75
2021/07/26 11:43:39;;;;;;;8.95;3.03;;;;;;;26.55;37.35;101936.38;5981482;29;20216;-75
2021/07/26 11:46:47;;;;;;;3.50;3.30;;;;;;;26.68;36.48;101937.66;5981158;29;20205;-76
2021/07/26 11:49:52;;;;;;;5.72;3.60;;;;;;;26.72;37.62;101938.72;5980958;29;20386;-75
2021/07/26 11:52:57;;;;;;;13.65;3.90;;;;;;;26.68;39.09;101926.47;5982284;29;20228;-75
2021/07/26 11:56:01;;;;;;;7.90;3.92;;;;;;;26.70;38.62;101935.41;5981363;29;20280;-75
2021/07/26 11:59:26;;;;;;;21.25;4.30;;;;;;;26.77;39.38;101930.28;5982065;29;20234;-75
2021/07/26 12:02:31;;;;;;;12.02;4.10;;;;;;;26.72;39.00;101938.72;5981568;29;20244;-75
2021/07/26 12:05:37;;;;;;;5.50;3.90;;;;;;;26.70;39.48;101929.81;5979719;29;20213;-75
2021/07/26 12:08:41;;;;;;;12.48;4.55;;;;;;;26.74;39.33;101930.84;5981670;29;20200;-75
2021/07/26 12:11:46;;;;;;;15.98;3.60;;;;;;;26.71;39.58;101917.44;5981180;29;20251;-75
2021/07/26 12:14:51;;;;;;;9.02;3.92;;;;;;;26.75;40.01;101910.13;5980388;29;20550;-75
2021/07/26 12:18:06;;;;;;;18.85;3.80;;;;;;;26.68;40.31;101910.47;5981371;29;20256;-76
2021/07/26 12:21:11;;;;;;;4.25;3.80;;;;;;;26.72;40.47;101921.94;5980155;29;20194;-75
2021/07/26 12:24:15;;;;;;;13.90;3.58;;;;;;;26.64;39.94;101909.44;5981292;29;20268;-75
2021/07/26 12:27:27;;;;;;;12.13;4.20;;;;;;;26.78;40.16;101909.56;5980161;29;20575;-75
2021/07/26 12:30:37;;;;;;;4.53;4.05;;;;;;;26.80;40.28;101915.69;5979892;29;20209;-75
2021/07/26 12:33:41;;;;;;;21.45;4.65;;;;;;;26.88;40.29;101919.81;5980453;29;20200;-75
2021/07/26 12:36:46;;;;;;;7.57;3.90;;;;;;;26.82;40.33;101910.63;5979065;29;20291;-75
2021/07/26 12:39:50;;;;;;;4.78;3.97;;;;;;;26.85;40.50;101910.03;5979833;29;20256;-75
2021/07/26 12:43:04;;;;;;;28.40;4.82;;;;;;;26.87;40.32;101904.97;5979851;29;20379;-75
2021/07/26 12:46:11;;;;;;;4.20;3.42;;;;;;;26.98;40.07;101914.06;5979860;29;20507;-75
2021/07/26 12:49:16;;;;;;;11.60;3.78;;;;;;;26.86;41.03;101906.09;5980666;29;20201;-75
2021/07/26 12:52:20;;;;;;;4.20;3.80;;;;;;;26.76;40.85;101909.00;5980782;29;20224;-75
2021/07/26 12:55:24;;;;;;;8.18;4.00;;;;;;;26.71;41.44;101914.66;5979062;29;20609;-75
2021/07/26 12:58:30;;;;;;;5.32;4.20;;;;;;;26.61;41.38;101909.19;5979794;29;20216;-75
2021/07/26 13:01:36;;;;;;;17.95;4.30;;;;;;;26.49;41.44;101906.81;5979433;29;20208;-75
2021/07/26 13:04:41;;;;;;;14.50;4.30;;;;;;;26.45;41.63;101904.91;5935633;30;20194;-75
2021/07/26 13:07:45;;;;;;;14.10;4.10;;;;;;;26.46;42.09;101906.56;5935601;30;20277;-75
2021/07/26 13:10:50;;;;;;;10.23;3.90;;;;;;;26.40;42.29;101899.38;5935849;30;20194;-75
2021/07/26 13:13:54;;;;;;;3.88;3.50;;;;;;;26.28;43.13;101910.13;5935456;30;20257;-75
2021/07/26 13:17:00;;;;;;;10.32;4.30;;;;;;;26.37;43.18;101908.38;5935931;30;20229;-75
2021/07/26 13:20:08;;;;;;;9.73;3.88;;;;;;;26.30;43.69;101907.88;5934601;30;20533;-75
2021/07/26 13:23:12;;;;;;;12.40;3.53;;;;;;;26.43;44.01;101907.16;5935760;30;20195;-75
2021/07/26 13:26:18;;;;;;;16.42;3.78;;;;;;;26.51;43.33;101909.31;5935983;30;20240;-75
2021/07/26 13:29:22;;;;;;;5.65;3.47;;;;;;;26.63;43.51;101901.34;5935846;30;20269;-75
2021/07/26 13:32:48;;;;;;;3.58;3.47;;;;;;;26.82;43.75;101893.00;5935139;30;20257;-75
2021/07/26 13:35:52;;;;;;;4.00;3.70;;;;;;;26.80;43.49;101890.50;5934698;30;20444;-75
2021/07/26 13:38:57;;;;;;;8.70;3.63;;;;;;;26.95;43.95;101881.06;5935717;30;20201;-75
2021/07/26 13:42:01;;;;;;;9.95;3.80;;;;;;;27.04;43.07;101885.66;5936001;30;20226;-75
2021/07/26 13:45:06;;;;;;;4.20;3.90;;;;;;;27.50;42.46;101877.44;5934781;30;20198;-75
2021/07/26 13:48:14;;;;;;;4.13;3.58;;;;;;;27.66;42.15;101880.81;5935503;30;20224;-76
2021/07/26 13:51:17;;;;;;;4.47;3.67;;;;;;;27.72;41.96;101879.59;5935485;30;20194;-75
2021/07/26 13:54:21;;;;;;;13.02;3.90;;;;;;;27.56;42.01;101869.75;5935744;30;20197;-75
2021/07/26 13:57:26;;;;;;;15.30;3.80;;;;;;;27.43;42.14;101874.19;5935602;30;20221;-75
2021/07/26 14:00:30;;;;;;;7.80;3.47;;;;;;;27.29;42.14;101887.28;5934987;30;20258;-75
2021/07/26 14:03:36;;;;;;;4.63;3.80;;;;;;;27.32;41.87;101884.69;5962813;29;20279;-75
2021/07/26 14:06:40;;;;;;;5.22;3.78;;;;;;;27.12;42.06;101881.34;5980001;29;20254;-75
2021/07/26 14:09:45;;;;;;;3.90;3.70;;;;;;;27.18;42.47;101875.38;5983326;29;20389;-75
2021/07/26 14:12:49;;;;;;;9.73;3.58;;;;;;;27.19;42.53;101868.66;5983212;29;20495;-75
2021/07/26 14:15:54;;;;;;;13.45;4.00;;;;;;;27.35;42.03;101872.88;5983104;29;20483;-75
2021/07/26 14:18:59;;;;;;;6.43;3.63;;;;;;;27.37;42.95;101866.97;5983153;29;20252;-75
2021/07/26 14:22:04;;;;;;;4.47;3.40;;;;;;;27.48;42.32;101873.28;5983252;29;20194;-75
2021/07/26 14:25:12;;;;;;;9.93;3.33;;;;;;;27.51;42.03;101878.25;5983178;29;20261;-75
2021/07/26 14:28:16;;;;;;;5.93;3.50;;;;;;;27.53;42.42;101870.41;5984284;29;20208;-75